createdAt,value
2023-05-03T00:02:27.141Z,11.76
2023-05-03T00:04:59.702Z,11.79
2023-05-03T00:07:31.986Z,11.81
2023-05-03T00:10:04.570Z,11.83
2023-05-03T00:12:37.244Z,11.84
2023-05-03T00:15:11.540Z,11.85
2023-05-03T00:17:46.998Z,11.87
2023-05-03T00:20:19.411Z,11.87
2023-05-03T00:22:51.958Z,11.88
2023-05-03T00:25:24.448Z,11.88
2023-05-03T00:27:57.651Z,11.88
2023-05-03T00:30:29.836Z,11.87
2023-05-03T00:33:02.281Z,11.86
2023-05-03T00:35:34.483Z,11.85
2023-05-03T00:38:09.000Z,11.81
2023-05-03T00:40:43.221Z,11.80
2023-05-03T00:43:15.639Z,11.81
2023-05-03T00:45:47.882Z,11.81
2023-05-03T00:48:20.100Z,11.82
2023-05-03T00:50:54.487Z,11.83
2023-05-03T00:53:27.445Z,11.85
2023-05-03T00:56:02.144Z,11.86
2023-05-03T00:58:40.531Z,11.88
2023-05-03T01:01:13.181Z,11.86
2023-05-03T01:03:46.828Z,11.84
2023-05-03T01:06:36.493Z,11.86
2023-05-03T01:09:13.943Z,11.89
2023-05-03T01:11:56.411Z,11.90
2023-05-03T01:14:37.788Z,11.90
2023-05-03T01:17:13.305Z,11.88
2023-05-03T01:19:50.223Z,11.88
2023-05-03T01:22:34.225Z,11.86
2023-05-03T01:25:10.408Z,11.85
2023-05-03T01:27:43.388Z,11.86
2023-05-03T01:30:16.226Z,11.87
2023-05-03T01:33:04.838Z,11.85
2023-05-03T01:35:42.359Z,11.82
2023-05-03T01:38:15.373Z,11.80
2023-05-03T01:40:52.442Z,11.77
2023-05-03T01:43:25.856Z,11.76
2023-05-03T01:46:03.850Z,11.76
2023-05-03T01:48:36.153Z,11.77
2023-05-03T01:51:08.485Z,11.77
2023-05-03T01:53:41.968Z,11.74
2023-05-03T01:56:14.076Z,11.70
2023-05-03T01:58:46.325Z,11.65
2023-05-03T02:01:18.568Z,11.64
2023-05-03T02:03:50.727Z,11.65
2023-05-03T02:06:22.911Z,11.66
2023-05-03T02:08:55.582Z,11.65
2023-05-03T02:11:28.034Z,11.62
2023-05-03T02:14:00.248Z,11.58
2023-05-03T02:16:33.125Z,11.53
2023-05-03T02:19:05.598Z,11.50
2023-05-03T02:21:39.310Z,11.50
2023-05-03T02:24:11.686Z,11.50
2023-05-03T02:26:43.973Z,11.51
2023-05-03T02:29:16.350Z,11.49
2023-05-03T02:31:48.743Z,11.48
2023-05-03T02:34:22.070Z,11.47
2023-05-03T02:37:02.243Z,11.46
2023-05-03T02:39:35.042Z,11.45
2023-05-03T02:42:07.934Z,11.46
2023-05-03T02:44:40.021Z,11.46
2023-05-03T02:47:13.862Z,11.45
2023-05-03T02:49:46.591Z,11.42
2023-05-03T02:52:18.736Z,11.43
2023-05-03T02:54:50.980Z,11.42
2023-05-03T02:57:23.220Z,11.39
2023-05-03T02:59:55.681Z,11.35
2023-05-03T03:02:28.475Z,11.33
2023-05-03T03:05:01.109Z,11.29
2023-05-03T03:07:38.372Z,11.30
2023-05-03T03:10:12.462Z,11.29
2023-05-03T03:12:44.602Z,11.31
2023-05-03T03:15:18.551Z,11.33
2023-05-03T03:17:51.062Z,11.34
2023-05-03T03:20:25.982Z,11.35
2023-05-03T03:22:58.404Z,11.33
2023-05-03T03:25:32.180Z,11.33
2023-05-03T03:28:04.372Z,11.29
2023-05-03T03:30:37.046Z,11.26
2023-05-03T03:33:22.098Z,11.18
2023-05-03T03:35:56.278Z,11.14
2023-05-03T03:38:28.701Z,11.11
2023-05-03T03:41:03.359Z,11.09
2023-05-03T03:43:35.603Z,11.07
2023-05-03T03:46:09.664Z,11.03
2023-05-03T03:48:41.960Z,10.99
2023-05-03T03:51:14.461Z,10.95
2023-05-03T03:53:52.637Z,10.92
2023-05-03T03:56:26.463Z,10.91
2023-05-03T03:58:59.282Z,10.86
2023-05-03T04:01:31.945Z,10.82
2023-05-03T04:04:04.576Z,10.78
2023-05-03T04:06:37.200Z,10.73
2023-05-03T04:09:14.022Z,10.71
2023-05-03T04:11:46.198Z,10.72
2023-05-03T04:14:18.630Z,10.76
2023-05-03T04:16:51.379Z,10.82
2023-05-03T04:19:25.478Z,10.86
2023-05-03T04:21:58.404Z,10.89
2023-05-03T04:24:30.660Z,10.92
2023-05-03T04:27:04.730Z,10.95
2023-05-03T04:29:38.863Z,10.98
2023-05-03T04:32:11.573Z,10.96
2023-05-03T04:34:49.050Z,10.95
2023-05-03T04:37:24.793Z,10.91
2023-05-03T04:39:57.056Z,10.89
2023-05-03T04:42:29.346Z,10.91
2023-05-03T04:45:03.262Z,10.93
2023-05-03T04:47:36.022Z,10.97
2023-05-03T04:50:11.392Z,10.96
2023-05-03T04:52:45.931Z,10.97
2023-05-03T04:55:18.357Z,10.97
2023-05-03T04:57:51.075Z,11.01
2023-05-03T05:00:23.781Z,11.04
2023-05-03T05:03:01.504Z,11.12
2023-05-03T05:05:35.445Z,11.14
2023-05-03T05:08:08.174Z,11.15
2023-05-03T05:10:47.762Z,11.11
2023-05-03T05:13:22.215Z,11.12
2023-05-03T05:15:54.465Z,11.12
2023-05-03T05:18:27.540Z,11.12
2023-05-03T05:21:00.485Z,11.13
2023-05-03T05:23:32.922Z,11.18
2023-05-03T05:26:08.528Z,11.22
2023-05-03T05:28:42.107Z,11.22
2023-05-03T05:31:15.725Z,11.23
2023-05-03T05:33:48.677Z,11.26
2023-05-03T05:36:22.164Z,11.29
2023-05-03T05:38:55.131Z,11.31
2023-05-03T05:41:27.518Z,11.30
2023-05-03T05:44:01.657Z,11.32
2023-05-03T05:46:34.967Z,11.34
2023-05-03T05:49:08.397Z,11.37
2023-05-03T05:51:41.614Z,11.39
2023-05-03T05:54:16.435Z,11.41
2023-05-03T05:56:50.290Z,11.44
2023-05-03T05:59:22.698Z,11.48
2023-05-03T06:02:00.562Z,11.51
2023-05-03T06:04:33.389Z,11.53
2023-05-03T06:07:09.503Z,11.55
2023-05-03T06:09:43.978Z,11.59
2023-05-03T06:12:16.221Z,11.68
2023-05-03T06:15:01.540Z,11.64
2023-05-03T06:17:39.046Z,11.66
2023-05-03T06:20:13.032Z,11.68
2023-05-03T06:25:59.085Z,11.76
2023-05-03T06:28:31.924Z,11.78
2023-05-03T06:31:07.349Z,11.77
2023-05-03T06:33:41.684Z,11.71
2023-05-03T06:36:15.224Z,11.69
2023-05-03T06:38:47.898Z,11.68
2023-05-03T06:41:20.105Z,11.64
2023-05-03T06:43:53.009Z,11.64
2023-05-03T06:46:25.589Z,11.63
2023-05-03T06:48:58.048Z,11.63
2023-05-03T06:51:33.321Z,11.63
2023-05-03T06:54:09.806Z,11.59
2023-05-03T06:56:42.039Z,11.59
2023-05-03T06:59:14.129Z,11.61
2023-05-03T07:01:47.242Z,11.60
2023-05-03T07:04:20.110Z,11.56
2023-05-03T07:06:56.528Z,11.54
2023-05-03T07:09:42.774Z,11.57
2023-05-03T07:12:16.596Z,11.58
2023-05-03T07:14:49.131Z,11.64
2023-05-03T07:17:21.707Z,11.67
2023-05-03T07:19:54.272Z,11.67
2023-05-03T07:22:27.557Z,11.66
2023-05-03T07:25:00.244Z,11.66
2023-05-03T07:27:32.564Z,11.68
2023-05-03T07:30:05.203Z,11.70
2023-05-03T07:32:37.842Z,11.72
2023-05-03T07:35:11.323Z,11.73
2023-05-03T07:37:43.486Z,11.79
2023-05-03T07:40:16.192Z,11.85
2023-05-03T07:42:51.016Z,11.94
2023-05-03T07:45:23.512Z,12.06
2023-05-03T07:47:56.647Z,12.20
2023-05-03T07:50:29.757Z,12.38
2023-05-03T07:53:01.962Z,12.54
2023-05-03T07:55:36.614Z,12.70
2023-05-03T07:58:08.882Z,12.86
2023-05-03T08:00:41.484Z,13.03
2023-05-03T08:03:14.260Z,13.22
2023-05-03T08:05:48.350Z,13.47
2023-05-03T08:08:21.109Z,13.80
2023-05-03T08:10:56.607Z,13.98
2023-05-03T08:13:28.839Z,14.02
2023-05-03T08:16:01.205Z,13.94
2023-05-03T08:18:33.901Z,13.80
2023-05-03T08:21:06.440Z,13.71
2023-05-03T08:23:38.674Z,13.60
2023-05-03T08:26:14.506Z,13.41
2023-05-03T08:28:47.048Z,13.23
2023-05-03T08:31:19.263Z,13.13
2023-05-03T08:33:54.088Z,13.07
2023-05-03T08:36:26.331Z,13.07
2023-05-03T08:39:00.166Z,13.09
2023-05-03T08:41:34.879Z,13.12
2023-05-03T08:44:09.292Z,13.21
2023-05-03T08:46:44.459Z,13.21
2023-05-03T08:49:18.044Z,13.17
2023-05-03T08:51:50.885Z,13.05
2023-05-03T08:54:24.333Z,13.01
2023-05-03T08:56:56.839Z,12.97
2023-05-03T08:59:29.944Z,12.97
2023-05-03T09:02:09.515Z,13.05
2023-05-03T09:04:41.903Z,13.12
2023-05-03T09:07:15.946Z,13.18
2023-05-03T09:09:48.340Z,13.24
2023-05-03T09:12:37.095Z,13.28
2023-05-03T09:15:21.976Z,13.32
2023-05-03T09:18:10.705Z,13.28
2023-05-03T09:20:51.943Z,13.23
2023-05-03T09:23:34.307Z,13.25
2023-05-03T09:26:07.527Z,13.21
2023-05-03T09:28:45.536Z,13.24
2023-05-03T09:31:17.822Z,13.27
2023-05-03T09:34:01.000Z,13.33
2023-05-03T09:36:56.761Z,13.40
2023-05-03T09:39:36.975Z,13.38
2023-05-03T09:42:17.288Z,13.28
2023-05-03T09:44:52.008Z,13.18
2023-05-03T09:47:25.650Z,13.13
2023-05-03T09:49:58.204Z,13.14
2023-05-03T09:52:32.231Z,13.13
2023-05-03T09:55:04.702Z,13.10
2023-05-03T09:57:38.740Z,13.11
2023-05-03T10:00:13.921Z,13.14
2023-05-03T10:02:47.634Z,13.13
2023-05-03T10:05:22.167Z,13.17
2023-05-03T10:07:56.857Z,13.20
2023-05-03T10:10:33.094Z,13.23
2023-05-03T10:13:10.712Z,13.25
2023-05-03T10:15:45.469Z,13.25
2023-05-03T10:18:25.203Z,13.24
2023-05-03T10:21:03.026Z,13.25
2023-05-03T10:23:35.237Z,13.35
2023-05-03T10:26:19.631Z,13.47
2023-05-03T10:28:51.843Z,13.63
2023-05-03T10:31:46.564Z,13.85
2023-05-03T10:34:26.554Z,14.10
2023-05-03T10:37:02.110Z,14.22
2023-05-03T10:39:34.919Z,14.22
2023-05-03T10:42:10.494Z,14.13
2023-05-03T10:44:52.604Z,13.99
2023-05-03T10:47:28.846Z,13.91
2023-05-03T10:50:27.093Z,13.90
2023-05-03T10:53:02.128Z,13.86
2023-05-03T10:55:35.974Z,13.85
2023-05-03T10:58:14.457Z,13.87
2023-05-03T11:00:48.218Z,13.89
2023-05-03T11:03:36.462Z,13.91
2023-05-03T11:06:09.313Z,13.91
2023-05-03T11:08:51.018Z,13.88
2023-05-03T11:11:25.823Z,13.81
2023-05-03T11:13:58.125Z,13.71
2023-05-03T11:16:31.166Z,13.62
2023-05-03T11:19:06.092Z,13.58
2023-05-03T11:21:44.886Z,13.61
2023-05-03T11:24:21.191Z,13.61
2023-05-03T11:26:53.641Z,13.67
2023-05-03T11:29:28.766Z,13.77
2023-05-03T11:32:01.799Z,13.88
2023-05-03T11:34:34.453Z,14.00
2023-05-03T11:37:09.541Z,14.14
2023-05-03T11:42:59.069Z,14.79
2023-05-03T11:45:39.799Z,15.25
2023-05-03T11:48:13.058Z,15.54
2023-05-03T11:50:51.683Z,15.60
2023-05-03T11:53:25.464Z,15.50
2023-05-03T11:55:59.251Z,15.42
2023-05-03T11:58:32.260Z,15.45
2023-05-03T12:01:06.034Z,15.55
2023-05-03T12:03:38.794Z,15.65
2023-05-03T12:06:13.775Z,15.85
2023-05-03T12:08:52.860Z,15.99
2023-05-03T12:11:28.256Z,15.98
2023-05-03T12:14:22.066Z,15.91
2023-05-03T12:16:56.993Z,15.72
2023-05-03T12:19:34.396Z,15.68
2023-05-03T12:22:26.131Z,15.78
2023-05-03T12:24:59.294Z,15.99
2023-05-03T12:27:32.750Z,16.24
2023-05-03T12:30:10.123Z,16.49
2023-05-03T12:32:44.380Z,16.68
2023-05-03T12:35:20.066Z,16.74
2023-05-03T12:38:01.650Z,16.67
2023-05-03T12:40:41.539Z,16.78
2023-05-03T12:43:17.835Z,16.91
2023-05-03T12:45:54.695Z,16.96
2023-05-03T12:48:46.214Z,17.18
2023-05-03T12:51:26.038Z,17.41
2023-05-03T12:54:01.774Z,17.47
2023-05-03T12:56:37.560Z,17.36
2023-05-03T12:59:31.742Z,17.20
2023-05-03T13:03:12.980Z,17.00
2023-05-03T13:05:00.121Z,16.86
2023-05-03T13:07:42.359Z,16.96
2023-05-03T13:12:57.196Z,17.06
2023-05-03T13:15:29.639Z,16.96
2023-05-03T13:18:04.979Z,16.82
2023-05-03T13:20:38.944Z,16.68
2023-05-03T13:23:14.704Z,16.58
2023-05-03T13:25:54.279Z,16.48
2023-05-03T13:28:27.275Z,16.49
2023-05-03T13:30:59.481Z,16.51
2023-05-03T13:33:32.036Z,16.51
2023-05-03T13:36:08.577Z,16.49
2023-05-03T13:38:56.324Z,16.64
2023-05-03T13:41:28.580Z,16.81
2023-05-03T13:44:00.846Z,16.86
2023-05-03T13:46:33.097Z,16.94
2023-05-03T13:49:07.452Z,17.03
2023-05-03T13:51:42.852Z,17.23
2023-05-03T13:54:15.097Z,17.45
2023-05-03T13:56:47.465Z,17.56
2023-05-03T13:59:19.716Z,17.47
2023-05-03T14:01:52.612Z,17.33
2023-05-03T14:04:27.424Z,17.19
2023-05-03T14:07:03.037Z,17.04
2023-05-03T14:09:39.570Z,16.92
2023-05-03T14:12:12.279Z,16.80
2023-05-03T14:14:44.420Z,16.73
2023-05-03T14:17:17.143Z,16.58
2023-05-03T14:19:49.932Z,16.45
2023-05-03T14:22:23.219Z,16.40
2023-05-03T14:24:56.781Z,16.40
2023-05-03T14:27:30.998Z,16.45
2023-05-03T14:30:06.192Z,16.64
2023-05-03T14:32:43.634Z,16.76
2023-05-03T14:35:18.401Z,16.76
2023-05-03T14:37:53.016Z,16.71
2023-05-03T14:40:25.473Z,16.65
2023-05-03T14:42:57.868Z,16.70
2023-05-03T14:45:30.596Z,16.74
2023-05-03T14:48:03.543Z,16.75
2023-05-03T14:50:35.952Z,16.73
2023-05-03T14:53:10.764Z,16.78
2023-05-03T14:55:43.093Z,16.71
2023-05-03T14:58:17.246Z,16.57
2023-05-03T15:00:49.587Z,16.41
2023-05-03T15:03:22.074Z,16.29
2023-05-03T15:05:54.652Z,16.21
2023-05-03T15:08:27.927Z,16.12
2023-05-03T15:11:00.233Z,15.98
2023-05-03T15:13:36.314Z,15.90
2023-05-03T15:16:10.375Z,15.91
2023-05-03T15:18:44.026Z,15.89
2023-05-03T15:21:16.841Z,15.82
2023-05-03T15:23:49.544Z,15.72
2023-05-03T15:26:22.755Z,15.64
2023-05-03T15:28:54.946Z,15.60
2023-05-03T15:31:27.226Z,15.55
2023-05-03T15:34:02.593Z,15.50
2023-05-03T15:36:37.861Z,15.49
2023-05-03T15:39:10.396Z,15.47
2023-05-03T15:41:42.785Z,15.47
2023-05-03T15:44:15.129Z,15.46
2023-05-03T15:46:47.588Z,15.49
2023-05-03T15:49:19.705Z,15.53
2023-05-03T15:51:51.908Z,15.52
2023-05-03T15:54:23.933Z,15.54
2023-05-03T15:56:56.602Z,15.56
2023-05-03T15:59:28.951Z,15.61
2023-05-03T16:02:01.304Z,15.58
2023-05-03T16:04:37.913Z,15.59
2023-05-03T16:07:10.061Z,15.66
2023-05-03T16:09:43.236Z,15.71
2023-05-03T16:12:15.354Z,15.69
2023-05-03T16:14:47.464Z,15.67
2023-05-03T16:17:19.581Z,15.63
2023-05-03T16:19:51.731Z,15.55
2023-05-03T16:22:23.962Z,15.49
2023-05-03T16:24:56.015Z,15.36
2023-05-03T16:27:28.198Z,15.26
2023-05-03T16:30:01.894Z,15.16
2023-05-03T16:32:35.179Z,15.08
2023-05-03T16:35:08.378Z,14.94
2023-05-03T16:37:41.900Z,14.81
2023-05-03T16:40:14.520Z,14.71
2023-05-03T16:42:49.452Z,14.69
2023-05-03T16:45:21.956Z,14.64
2023-05-03T16:47:54.467Z,14.61
2023-05-03T16:50:26.870Z,14.53
2023-05-03T16:52:59.010Z,14.40
2023-05-03T16:55:31.394Z,14.28
2023-05-03T16:58:03.348Z,14.16
2023-05-03T17:00:35.563Z,14.05
2023-05-03T17:03:08.319Z,13.98
2023-05-03T17:05:40.587Z,13.89
2023-05-03T17:08:13.637Z,13.82
2023-05-03T17:10:46.040Z,13.74
2023-05-03T17:13:18.577Z,13.69
2023-05-03T17:15:50.742Z,13.65
2023-05-03T17:18:22.853Z,13.62
2023-05-03T17:20:59.844Z,13.55
2023-05-03T17:23:35.900Z,13.49
2023-05-03T17:26:10.232Z,13.44
2023-05-03T17:28:43.023Z,13.38
2023-05-03T17:31:15.064Z,13.33
2023-05-03T17:33:47.249Z,13.28
2023-05-03T17:36:22.126Z,13.23
2023-05-03T17:38:55.167Z,13.14
2023-05-03T17:41:27.513Z,13.04
2023-05-03T17:43:59.560Z,13.01
2023-05-03T17:46:33.106Z,12.98
2023-05-03T17:49:08.506Z,12.94
2023-05-03T17:51:41.262Z,12.86
2023-05-03T17:54:13.534Z,12.75
2023-05-03T17:56:47.842Z,12.66
2023-05-03T17:59:19.922Z,12.57
2023-05-03T18:01:54.321Z,12.48
2023-05-03T18:04:31.720Z,12.42
2023-05-03T18:07:03.864Z,12.34
2023-05-03T18:09:36.200Z,12.22
2023-05-03T18:12:09.323Z,12.11
2023-05-03T18:14:41.786Z,11.99
2023-05-03T18:17:16.654Z,11.89
2023-05-03T18:19:48.849Z,11.77
2023-05-03T18:22:23.402Z,11.67
2023-05-03T18:25:01.893Z,11.58
2023-05-03T18:27:36.796Z,11.48
2023-05-03T18:30:10.648Z,11.36
2023-05-03T18:32:43.297Z,11.26
2023-05-03T18:35:15.496Z,11.14
2023-05-03T18:37:51.452Z,11.01
2023-05-03T18:40:25.555Z,10.89
2023-05-03T18:42:58.139Z,10.79
2023-05-03T18:45:30.699Z,10.68
2023-05-03T18:48:02.935Z,10.53
2023-05-03T18:50:38.351Z,10.39
2023-05-03T18:53:12.071Z,10.28
2023-05-03T18:55:47.198Z,10.16
2023-05-03T18:58:19.324Z,10.01
2023-05-03T19:00:52.528Z,9.89
2023-05-03T19:03:24.839Z,9.73
2023-05-03T19:06:00.942Z,9.61
2023-05-03T19:11:41.344Z,9.43
2023-05-03T19:14:13.634Z,9.26
2023-05-03T19:16:47.297Z,9.14
2023-05-03T19:19:20.211Z,9.02
2023-05-03T19:21:52.879Z,8.92
2023-05-03T19:24:25.071Z,8.84
2023-05-03T19:26:58.942Z,8.75
2023-05-03T19:29:31.183Z,8.64
2023-05-03T19:32:03.379Z,8.53
2023-05-03T19:34:37.260Z,8.41
2023-05-03T19:37:09.902Z,8.33
2023-05-03T19:39:42.133Z,8.26
2023-05-03T19:42:16.520Z,8.21
2023-05-03T19:44:48.619Z,8.14
2023-05-03T19:47:20.788Z,8.05
2023-05-03T19:49:52.881Z,7.97
2023-05-03T19:52:25.267Z,7.91
2023-05-03T19:54:57.800Z,7.86
2023-05-03T19:57:30.036Z,7.79
2023-05-03T20:00:02.540Z,7.74
2023-05-03T20:02:38.117Z,7.65
2023-05-03T20:05:11.392Z,7.57
2023-05-03T20:07:43.669Z,7.49
2023-05-03T20:10:17.865Z,7.39
2023-05-03T20:12:50.088Z,7.31
2023-05-03T20:15:24.423Z,7.25
2023-05-03T20:17:57.617Z,7.20
2023-05-03T20:20:30.965Z,7.15
2023-05-03T20:23:03.191Z,7.08
2023-05-03T20:25:35.364Z,7.03
2023-05-03T20:28:08.245Z,6.96
2023-05-03T20:30:40.440Z,6.89
2023-05-03T20:33:12.731Z,6.82
2023-05-03T20:35:45.120Z,6.72
2023-05-03T20:38:17.366Z,6.63
2023-05-03T20:40:50.069Z,6.60
2023-05-03T20:43:22.435Z,6.53
2023-05-03T20:45:54.734Z,6.45
2023-05-03T20:48:27.358Z,6.42
2023-05-03T20:51:00.909Z,6.37
2023-05-03T20:53:33.116Z,6.32
2023-05-03T20:56:06.476Z,6.26
2023-05-03T20:58:38.680Z,6.19
2023-05-03T21:01:10.889Z,6.12
2023-05-03T21:03:43.144Z,6.07
2023-05-03T21:06:15.346Z,6.02
2023-05-03T21:08:48.164Z,5.96
2023-05-03T21:11:20.373Z,5.91
2023-05-03T21:13:52.604Z,5.86
2023-05-03T21:16:25.284Z,5.82
2023-05-03T21:18:57.533Z,5.75
2023-05-03T21:21:30.158Z,5.67
2023-05-03T21:24:02.341Z,5.61
2023-05-03T21:26:35.553Z,5.56
2023-05-03T21:29:08.380Z,5.54
2023-05-03T21:31:40.696Z,5.50
2023-05-03T21:34:15.080Z,5.46
2023-05-03T21:36:47.256Z,5.45
2023-05-03T21:39:20.751Z,5.40
2023-05-03T21:41:52.995Z,5.33
2023-05-03T21:44:25.201Z,5.28
2023-05-03T21:46:57.619Z,5.25
2023-05-03T21:49:29.855Z,5.20
2023-05-03T21:52:02.590Z,5.15
2023-05-03T21:54:34.810Z,5.12
2023-05-03T21:57:06.986Z,5.09
2023-05-03T21:59:39.172Z,5.06
2023-05-03T22:02:11.253Z,5.00
2023-05-03T22:04:43.617Z,4.96
2023-05-03T22:07:15.762Z,4.91
2023-05-03T22:09:50.498Z,4.86
2023-05-03T22:12:24.523Z,4.83
2023-05-03T22:14:57.465Z,4.78
2023-05-03T22:17:30.665Z,4.72
2023-05-03T22:20:03.509Z,4.68
2023-05-03T22:22:38.715Z,4.65
2023-05-03T22:25:23.175Z,4.64
2023-05-03T22:27:55.987Z,4.61
2023-05-03T22:30:28.651Z,4.56
2023-05-03T22:33:00.797Z,4.51
2023-05-03T22:35:35.432Z,4.46
2023-05-03T22:38:07.661Z,4.41
2023-05-03T22:40:39.905Z,4.37
2023-05-03T22:43:12.058Z,4.34
2023-05-03T22:45:44.410Z,4.27
2023-05-03T22:48:16.579Z,4.24
2023-05-03T22:50:48.806Z,4.23
2023-05-03T22:53:20.985Z,4.22
2023-05-03T22:56:00.896Z,4.18
2023-05-03T22:58:33.661Z,4.14
2023-05-03T23:01:10.397Z,4.09
2023-05-03T23:03:42.832Z,4.05
2023-05-03T23:06:15.673Z,4.00
2023-05-03T23:08:47.868Z,4.00
2023-05-03T23:11:21.268Z,3.99
2023-05-03T23:13:53.362Z,3.97
2023-05-03T23:16:25.932Z,3.92
2023-05-03T23:18:58.229Z,3.88
2023-05-03T23:21:30.321Z,3.85
2023-05-03T23:24:02.561Z,3.81
2023-05-03T23:26:34.896Z,3.77
2023-05-03T23:29:08.411Z,3.77
2023-05-03T23:31:41.171Z,3.75
2023-05-03T23:34:13.598Z,3.74
2023-05-03T23:36:45.788Z,3.71
2023-05-03T23:39:18.072Z,3.69
2023-05-03T23:41:50.407Z,3.64
2023-05-03T23:44:22.843Z,3.59
2023-05-03T23:46:55.402Z,3.55
2023-05-03T23:49:27.881Z,3.51
2023-05-03T23:52:00.092Z,3.47
2023-05-03T23:54:32.328Z,3.47
2023-05-03T23:57:04.954Z,3.46
2023-05-03T23:59:37.368Z,3.44
